createdAt,value
2023-03-05T00:01:08.098Z,89.43
2023-03-05T00:03:34.930Z,89.18
2023-03-05T00:06:01.597Z,89.43
2023-03-05T00:08:29.637Z,89.39
2023-03-05T00:10:58.206Z,89.38
2023-03-05T00:13:25.223Z,89.50
2023-03-05T00:15:52.658Z,89.16
2023-03-05T00:18:19.350Z,88.62
2023-03-05T00:20:46.399Z,89.30
2023-03-05T00:23:13.417Z,89.65
2023-03-05T00:25:41.114Z,89.11
2023-03-05T00:28:08.404Z,89.58
2023-03-05T00:30:35.470Z,89.30
2023-03-05T00:33:02.214Z,89.45
2023-03-05T00:35:35.140Z,89.97
2023-03-05T00:38:01.773Z,89.44
2023-03-05T00:40:28.253Z,89.98
2023-03-05T00:42:54.642Z,90.32
2023-03-05T00:45:21.122Z,89.83
2023-03-05T00:47:47.516Z,90.43
2023-03-05T00:50:14.085Z,90.66
2023-03-05T00:52:40.540Z,90.41
2023-03-05T00:55:07.339Z,90.50
2023-03-05T00:57:33.776Z,90.94
2023-03-05T01:00:00.235Z,90.82
2023-03-05T01:02:26.722Z,91.04
2023-03-05T01:04:53.199Z,91.39
2023-03-05T01:07:19.631Z,91.47
2023-03-05T01:09:46.045Z,91.74
2023-03-05T01:12:12.641Z,91.80
2023-03-05T01:14:39.106Z,92.06
2023-03-05T01:17:05.594Z,91.23
2023-03-05T01:19:32.112Z,91.84
2023-03-05T01:21:59.139Z,92.10
2023-03-05T01:24:26.045Z,91.64
2023-03-05T01:26:52.522Z,92.46
2023-03-05T01:29:18.966Z,92.08
2023-03-05T01:31:45.535Z,92.42
2023-03-05T01:34:12.058Z,92.17
2023-03-05T01:36:41.307Z,91.95
2023-03-05T01:39:07.842Z,91.62
2023-03-05T01:41:34.965Z,92.31
2023-03-05T01:44:01.476Z,92.20
2023-03-05T01:46:38.065Z,92.43
2023-03-05T01:49:13.680Z,92.92
2023-03-05T01:52:18.068Z,92.32
2023-03-05T01:54:56.126Z,92.11
2023-03-05T01:57:28.488Z,92.20
2023-03-05T02:00:04.469Z,92.36
2023-03-05T02:02:31.905Z,92.37
2023-03-05T02:05:09.828Z,93.00
2023-03-05T02:07:37.990Z,92.36
2023-03-05T02:10:35.412Z,92.52
2023-03-05T02:13:06.790Z,92.93
2023-03-05T02:15:34.380Z,92.72
2023-03-05T02:18:04.352Z,92.78
2023-03-05T02:20:43.951Z,92.83
2023-03-05T02:23:10.319Z,92.41
2023-03-05T02:25:36.769Z,92.94
2023-03-05T02:28:14.893Z,93.30
2023-03-05T02:30:41.403Z,92.75
2023-03-05T02:33:08.142Z,92.53
2023-03-05T02:35:34.770Z,93.23
2023-03-05T02:38:01.209Z,92.68
2023-03-05T02:40:27.650Z,93.20
2023-03-05T02:42:54.038Z,93.09
2023-03-05T02:45:20.704Z,93.45
2023-03-05T02:47:47.114Z,93.89
2023-03-05T02:50:13.771Z,93.52
2023-03-05T02:52:40.479Z,93.14
2023-03-05T02:55:07.359Z,93.15
2023-03-05T02:57:34.697Z,93.38
2023-03-05T03:00:01.180Z,93.65
2023-03-05T03:02:27.596Z,93.08
2023-03-05T03:04:54.084Z,92.68
2023-03-05T03:07:20.532Z,93.06
2023-03-05T03:09:46.978Z,92.94
2023-03-05T03:12:13.470Z,93.08
2023-03-05T03:14:42.510Z,93.13
2023-03-05T03:17:14.932Z,93.37
2023-03-05T03:19:42.250Z,93.27
2023-03-05T03:22:10.992Z,92.94
2023-03-05T03:24:38.603Z,92.87
2023-03-05T03:27:05.120Z,93.12
2023-03-05T03:29:31.758Z,92.97
2023-03-05T03:31:58.798Z,93.84
2023-03-05T03:34:25.746Z,93.38
2023-03-05T03:36:52.941Z,93.14
2023-03-05T03:39:20.937Z,93.90
2023-03-05T03:41:50.591Z,94.21
2023-03-05T03:44:18.763Z,93.54
2023-03-05T03:46:47.401Z,93.74
2023-03-05T03:49:17.003Z,93.74
2023-03-05T03:51:43.387Z,93.76
2023-03-05T03:54:09.778Z,94.21
2023-03-05T03:56:36.258Z,94.43
2023-03-05T03:59:02.764Z,93.80
2023-03-05T04:01:29.222Z,93.97
2023-03-05T04:03:55.658Z,94.42
2023-03-05T04:06:22.075Z,93.99
2023-03-05T04:08:48.498Z,94.58
2023-03-05T04:11:16.003Z,94.51
2023-03-05T04:13:42.396Z,94.79
2023-03-05T04:16:08.825Z,95.22
2023-03-05T04:18:35.248Z,95.49
2023-03-05T04:21:01.712Z,95.66
2023-03-05T04:23:28.182Z,95.90
2023-03-05T04:25:54.822Z,95.80
2023-03-05T04:28:21.664Z,95.87
2023-03-05T04:30:48.090Z,96.20
2023-03-05T04:33:14.573Z,95.95
2023-03-05T04:35:41.122Z,97.00
2023-03-05T04:38:07.600Z,96.34
2023-03-05T04:40:34.524Z,97.05
2023-03-05T04:43:01.000Z,96.93
2023-03-05T04:45:27.584Z,96.85
2023-03-05T04:47:54.084Z,96.97
2023-03-05T04:50:20.517Z,97.34
2023-03-05T04:52:47.490Z,97.36
2023-03-05T04:55:15.406Z,97.29
2023-03-05T04:57:42.256Z,98.07
2023-03-05T05:00:14.427Z,98.07
2023-03-05T05:02:42.465Z,98.16
2023-03-05T05:05:11.959Z,97.75
2023-03-05T05:07:38.404Z,97.65
2023-03-05T05:10:07.716Z,98.19
2023-03-05T05:12:35.050Z,98.76
2023-03-05T05:15:02.023Z,98.44
2023-03-05T05:17:30.866Z,98.13
2023-03-05T05:19:57.401Z,98.57
2023-03-05T05:22:23.968Z,97.88
2023-03-05T05:24:50.513Z,98.97
2023-03-05T05:27:16.965Z,98.51
2023-03-05T05:29:43.394Z,98.83
2023-03-05T05:32:09.811Z,98.63
2023-03-05T05:34:36.236Z,98.81
2023-03-05T05:37:02.621Z,99.05
2023-03-05T05:39:28.982Z,99.06
2023-03-05T05:41:55.395Z,98.97
2023-03-05T05:44:21.800Z,99.89
2023-03-05T05:46:48.246Z,99.39
2023-03-05T05:49:14.711Z,99.43
2023-03-05T05:51:41.261Z,99.70
2023-03-05T05:54:07.719Z,99.45
2023-03-05T05:56:34.604Z,99.76
2023-03-05T05:59:00.978Z,98.94
2023-03-05T06:01:30.786Z,99.23
2023-03-05T06:03:57.667Z,99.47
2023-03-05T06:06:26.140Z,100.00
2023-03-05T06:08:53.136Z,99.56
2023-03-05T06:11:20.035Z,99.41
2023-03-05T06:13:47.534Z,99.46
2023-03-05T06:16:18.774Z,100.00
2023-03-05T06:18:45.555Z,100.00
2023-03-05T06:21:14.696Z,99.61
2023-03-05T06:23:41.892Z,100.00
2023-03-05T06:26:09.372Z,100.00
2023-03-05T06:28:36.122Z,99.52
2023-03-05T06:31:08.821Z,99.34
2023-03-05T06:33:36.174Z,99.41
2023-03-05T06:36:04.864Z,99.79
2023-03-05T06:38:31.616Z,99.63
2023-03-05T06:41:01.811Z,99.98
2023-03-05T06:43:28.254Z,100.00
2023-03-05T06:46:27.303Z,100.00
2023-03-05T06:48:57.077Z,100.00
2023-03-05T06:51:27.207Z,100.00
2023-03-05T06:53:54.448Z,100.00
2023-03-05T06:56:21.751Z,100.00
2023-03-05T06:58:50.854Z,99.77
2023-03-05T07:01:18.516Z,100.00
2023-03-05T07:03:45.170Z,99.88
2023-03-05T07:06:14.144Z,99.56
2023-03-05T07:08:40.671Z,99.99
2023-03-05T07:11:15.149Z,99.21
2023-03-05T07:13:43.173Z,100.00
2023-03-05T07:16:13.828Z,99.44
2023-03-05T07:18:40.480Z,99.02
2023-03-05T07:21:09.068Z,99.11
2023-03-05T07:23:36.410Z,98.79
2023-03-05T07:26:05.330Z,99.05
2023-03-05T07:28:33.630Z,98.90
2023-03-05T07:31:03.100Z,99.00
2023-03-05T07:33:30.153Z,98.66
2023-03-05T07:35:56.925Z,99.16
2023-03-05T07:38:23.609Z,98.38
2023-03-05T07:40:50.505Z,98.55
2023-03-05T07:43:17.388Z,99.16
2023-03-05T07:45:45.157Z,98.63
2023-03-05T07:48:14.387Z,98.98
2023-03-05T07:50:41.427Z,98.68
2023-03-05T07:53:08.075Z,98.14
2023-03-05T07:55:35.181Z,98.36
2023-03-05T07:58:01.673Z,97.63
2023-03-05T08:00:28.182Z,97.88
2023-03-05T08:02:54.742Z,97.87
2023-03-05T08:05:21.173Z,96.87
2023-03-05T08:07:47.659Z,96.08
2023-03-05T08:10:14.080Z,96.21
2023-03-05T08:12:40.470Z,95.80
2023-03-05T08:15:07.807Z,96.12
2023-03-05T08:17:34.490Z,95.74
2023-03-05T08:20:05.301Z,95.31
2023-03-05T08:22:35.020Z,95.81
2023-03-05T08:25:01.584Z,95.81
2023-03-05T08:27:28.001Z,95.56
2023-03-05T08:29:54.456Z,95.07
2023-03-05T08:32:21.337Z,94.72
2023-03-05T08:34:47.870Z,93.74
2023-03-05T08:37:14.354Z,93.81
2023-03-05T08:39:40.849Z,93.28
2023-03-05T08:42:09.016Z,92.56
2023-03-05T08:44:35.530Z,92.46
2023-03-05T08:47:01.957Z,91.88
2023-03-05T08:49:28.376Z,92.00
2023-03-05T08:51:54.805Z,91.98
2023-03-05T08:54:21.242Z,91.66
2023-03-05T08:56:49.494Z,91.47
2023-03-05T08:59:15.939Z,91.05
2023-03-05T09:01:42.342Z,91.14
2023-03-05T09:04:09.785Z,90.29
2023-03-05T09:06:40.310Z,89.98
2023-03-05T09:09:08.196Z,90.14
2023-03-05T09:11:36.198Z,90.40
2023-03-05T09:14:04.034Z,89.66
2023-03-05T09:16:30.746Z,89.50
2023-03-05T09:18:58.221Z,89.24
2023-03-05T09:21:24.704Z,89.38
2023-03-05T09:23:51.236Z,88.82
2023-03-05T09:26:21.289Z,88.20
2023-03-05T09:28:48.125Z,87.19
2023-03-05T09:31:14.688Z,87.52
2023-03-05T09:33:41.253Z,86.89
2023-03-05T09:36:22.183Z,86.78
2023-03-05T09:38:49.154Z,86.26
2023-03-05T09:41:24.700Z,86.16
2023-03-05T09:44:11.991Z,85.80
2023-03-05T09:47:03.430Z,85.81
2023-03-05T09:49:38.646Z,85.81
2023-03-05T09:52:26.102Z,86.18
2023-03-05T09:54:57.637Z,85.10
2023-03-05T09:57:32.144Z,85.93
2023-03-05T10:00:07.737Z,84.92
2023-03-05T10:02:41.664Z,85.51
2023-03-05T10:05:20.634Z,84.68
2023-03-05T10:07:57.613Z,83.73
2023-03-05T10:10:43.369Z,83.25
2023-03-05T10:13:41.463Z,83.72
2023-03-05T10:16:10.896Z,82.84
2023-03-05T10:19:02.529Z,81.89
2023-03-05T10:21:46.014Z,82.07
2023-03-05T10:24:49.286Z,82.22
2023-03-05T10:27:38.853Z,80.29
2023-03-05T10:30:30.038Z,80.70
2023-03-05T10:33:15.015Z,80.26
2023-03-05T10:36:00.141Z,79.68
2023-03-05T10:38:54.779Z,79.64
2023-03-05T10:41:40.388Z,78.66
2023-03-05T10:44:16.504Z,78.27
2023-03-05T10:46:44.576Z,76.91
2023-03-05T10:49:26.676Z,77.40
2023-03-05T10:51:57.662Z,74.74
2023-03-05T10:54:29.620Z,74.09
2023-03-05T10:57:14.001Z,74.72
2023-03-05T10:59:47.879Z,74.42
2023-03-05T11:02:14.535Z,73.12
2023-03-05T11:04:41.158Z,70.97
2023-03-05T11:07:16.625Z,72.08
2023-03-05T11:10:04.076Z,70.89
2023-03-05T11:12:33.915Z,70.97
2023-03-05T11:15:03.540Z,70.45
2023-03-05T11:17:47.880Z,70.02
2023-03-05T11:20:31.395Z,70.93
2023-03-05T11:23:23.425Z,70.50
2023-03-05T11:26:05.792Z,68.81
2023-03-05T11:28:38.681Z,68.85
2023-03-05T11:31:15.862Z,69.37
2023-03-05T11:33:56.454Z,69.70
2023-03-05T11:36:29.875Z,70.20
2023-03-05T11:39:07.546Z,70.84
2023-03-05T11:41:51.354Z,69.88
2023-03-05T11:44:23.034Z,67.86
2023-03-05T11:47:31.814Z,68.90
2023-03-05T11:50:31.800Z,67.73
2023-03-05T11:53:10.449Z,68.67
2023-03-05T11:55:46.295Z,64.66
2023-03-05T11:58:39.233Z,65.15
2023-03-05T12:01:16.614Z,64.72
2023-03-05T12:03:43.882Z,64.77
2023-03-05T12:06:36.355Z,65.52
2023-03-05T12:09:09.616Z,65.05
2023-03-05T12:11:36.984Z,65.28
2023-03-05T12:14:20.688Z,65.73
2023-03-05T12:16:53.522Z,66.15
2023-03-05T12:19:41.117Z,67.70
2023-03-05T12:22:38.328Z,67.26
2023-03-05T12:25:23.709Z,66.98
2023-03-05T12:27:50.096Z,65.48
2023-03-05T12:30:34.957Z,65.81
2023-03-05T12:33:03.541Z,65.39
2023-03-05T12:35:31.093Z,64.72
2023-03-05T12:38:01.779Z,65.75
2023-03-05T12:40:32.288Z,66.26
2023-03-05T12:43:32.222Z,67.10
2023-03-05T12:46:25.011Z,66.77
2023-03-05T12:48:51.790Z,66.60
2023-03-05T12:51:33.899Z,65.84
2023-03-05T12:54:20.261Z,65.45
2023-03-05T12:56:47.304Z,64.86
2023-03-05T12:59:19.711Z,63.87
2023-03-05T13:01:52.460Z,63.68
2023-03-05T13:04:34.962Z,64.02
2023-03-05T13:07:04.904Z,62.58
2023-03-05T13:09:36.253Z,62.89
2023-03-05T13:12:05.011Z,63.27
2023-03-05T13:14:42.324Z,62.93
2023-03-05T13:17:31.732Z,63.11
2023-03-05T13:20:00.378Z,61.68
2023-03-05T13:22:27.901Z,61.98
2023-03-05T13:25:14.012Z,62.55
2023-03-05T13:27:41.452Z,61.97
2023-03-05T13:30:26.870Z,61.86
2023-03-05T13:32:57.724Z,61.36
2023-03-05T13:35:24.340Z,61.58
2023-03-05T13:37:51.089Z,61.85
2023-03-05T13:40:22.468Z,62.61
2023-03-05T13:42:50.084Z,62.00
2023-03-05T13:45:29.683Z,62.53
2023-03-05T13:48:06.960Z,61.42
2023-03-05T13:50:36.322Z,61.87
2023-03-05T13:53:23.904Z,62.03
2023-03-05T13:55:52.865Z,62.37
2023-03-05T13:58:41.428Z,62.98
2023-03-05T14:01:21.922Z,63.36
2023-03-05T14:03:53.992Z,63.33
2023-03-05T14:06:22.470Z,64.11
2023-03-05T14:08:55.021Z,63.77
2023-03-05T14:11:21.580Z,63.80
2023-03-05T14:13:48.819Z,64.20
2023-03-05T14:16:28.159Z,63.94
2023-03-05T14:18:57.767Z,62.94
2023-03-05T14:21:24.942Z,64.54
2023-03-05T14:23:54.804Z,63.82
2023-03-05T14:26:34.892Z,63.89
2023-03-05T14:29:11.360Z,63.06
2023-03-05T14:31:51.709Z,63.72
2023-03-05T14:34:23.764Z,62.70
2023-03-05T14:36:52.696Z,61.66
2023-03-05T14:39:43.941Z,62.12
2023-03-05T14:42:30.196Z,63.76
2023-03-05T14:44:59.182Z,64.36
2023-03-05T14:47:27.342Z,63.95
2023-03-05T14:49:53.979Z,65.07
2023-03-05T14:52:23.785Z,65.93
2023-03-05T14:54:50.935Z,66.52
2023-03-05T14:57:25.133Z,66.53
2023-03-05T14:59:51.948Z,66.47
2023-03-05T15:02:21.865Z,66.70
2023-03-05T15:04:48.920Z,67.32
2023-03-05T15:07:23.638Z,67.46
2023-03-05T15:09:50.073Z,67.47
2023-03-05T15:12:16.868Z,67.01
2023-03-05T15:14:44.395Z,67.58
2023-03-05T15:17:18.906Z,66.97
2023-03-05T15:19:47.007Z,67.29
2023-03-05T15:22:14.391Z,67.68
2023-03-05T15:24:41.113Z,68.06
2023-03-05T15:27:07.864Z,68.01
2023-03-05T15:29:34.828Z,67.73
2023-03-05T15:32:02.277Z,67.71
2023-03-05T15:34:29.288Z,68.11
2023-03-05T15:36:55.856Z,68.06
2023-03-05T15:39:26.368Z,67.80
2023-03-05T15:41:53.573Z,68.76
2023-03-05T15:44:20.898Z,68.41
2023-03-05T15:46:48.226Z,68.39
2023-03-05T15:49:15.205Z,69.28
2023-03-05T15:51:41.648Z,69.63
2023-03-05T15:54:08.169Z,70.33
2023-03-05T15:56:34.702Z,70.19
2023-03-05T15:59:01.421Z,70.82
2023-03-05T16:01:27.944Z,70.06
2023-03-05T16:03:54.421Z,70.52
2023-03-05T16:06:23.888Z,69.59
2023-03-05T16:08:54.705Z,70.14
2023-03-05T16:11:21.699Z,71.15
2023-03-05T16:13:50.382Z,72.20
2023-03-05T16:16:17.877Z,72.19
2023-03-05T16:18:45.940Z,72.91
2023-03-05T16:21:13.869Z,72.50
2023-03-05T16:23:40.474Z,73.66
2023-03-05T16:26:10.887Z,75.10
2023-03-05T16:28:37.524Z,75.45
2023-03-05T16:31:06.059Z,76.30
2023-03-05T16:33:32.605Z,76.18
2023-03-05T16:36:11.325Z,77.13
2023-03-05T16:38:38.609Z,77.82
2023-03-05T16:41:08.553Z,77.75
2023-03-05T16:43:35.475Z,78.17
2023-03-05T16:46:02.460Z,77.76
2023-03-05T16:48:35.258Z,77.46
2023-03-05T16:51:03.843Z,78.40
2023-03-05T16:53:33.792Z,77.82
2023-03-05T16:56:04.168Z,77.11
2023-03-05T16:58:33.145Z,76.78
2023-03-05T17:01:00.643Z,75.83
2023-03-05T17:03:27.539Z,76.36
2023-03-05T17:05:54.821Z,74.93
2023-03-05T17:08:22.170Z,74.87
2023-03-05T17:10:48.818Z,75.08
2023-03-05T17:13:15.291Z,74.18
2023-03-05T17:18:08.180Z,73.80
2023-03-05T17:20:36.439Z,73.99
2023-03-05T17:23:02.955Z,73.83
2023-03-05T17:25:29.443Z,73.75
2023-03-05T17:27:55.860Z,73.46
2023-03-05T17:30:22.488Z,74.44
2023-03-05T17:32:52.530Z,74.29
2023-03-05T17:35:21.556Z,74.67
2023-03-05T17:37:48.870Z,74.42
2023-03-05T17:40:15.942Z,74.28
2023-03-05T17:42:42.362Z,75.32
2023-03-05T17:45:09.113Z,74.75
2023-03-05T17:47:35.735Z,74.63
2023-03-05T17:50:02.422Z,74.60
2023-03-05T17:52:29.137Z,74.78
2023-03-05T17:54:56.076Z,75.10
2023-03-05T17:57:23.190Z,75.45
2023-03-05T17:59:49.669Z,75.72
2023-03-05T18:02:16.097Z,75.94
2023-03-05T18:04:43.863Z,76.72
2023-03-05T18:07:10.668Z,76.41
2023-03-05T18:09:37.233Z,76.86
2023-03-05T18:12:03.907Z,77.42
2023-03-05T18:14:30.391Z,77.55
2023-03-05T18:16:58.994Z,77.87
2023-03-05T18:19:25.900Z,78.02
2023-03-05T18:21:52.370Z,78.84
2023-03-05T18:24:18.843Z,78.93
2023-03-05T18:26:45.544Z,79.29
2023-03-05T18:29:11.935Z,79.17
2023-03-05T18:31:38.409Z,79.39
2023-03-05T18:34:04.865Z,79.73
2023-03-05T18:36:31.339Z,79.84
2023-03-05T18:38:57.854Z,80.05
2023-03-05T18:41:27.798Z,79.95
2023-03-05T18:43:54.782Z,80.68
2023-03-05T18:46:21.392Z,80.10
2023-03-05T18:48:48.146Z,80.66
2023-03-05T18:51:17.395Z,80.34
2023-03-05T18:53:44.079Z,81.35
2023-03-05T18:56:10.882Z,80.88
2023-03-05T18:58:37.534Z,81.18
2023-03-05T19:01:04.621Z,81.23
2023-03-05T19:03:31.146Z,81.32
2023-03-05T19:05:57.558Z,81.09
2023-03-05T19:08:24.081Z,81.43
2023-03-05T19:10:50.619Z,81.24
2023-03-05T19:13:42.915Z,81.16
2023-03-05T19:16:15.824Z,80.82
2023-03-05T19:18:59.451Z,81.21
2023-03-05T19:21:25.876Z,81.67
2023-03-05T19:23:52.268Z,81.65
2023-03-05T19:26:18.687Z,81.46
2023-03-05T19:28:45.254Z,82.12
2023-03-05T19:31:13.983Z,82.03
2023-03-05T19:33:41.522Z,81.93
2023-03-05T19:36:10.695Z,82.01
2023-03-05T19:38:38.059Z,82.39
2023-03-05T19:41:05.835Z,82.34
2023-03-05T19:43:32.801Z,81.95
2023-03-05T19:46:04.979Z,82.40
2023-03-05T19:48:32.344Z,82.39
2023-03-05T19:50:58.939Z,81.78
2023-03-05T19:53:25.724Z,81.98
2023-03-05T19:55:52.406Z,83.10
2023-03-05T19:58:19.229Z,83.09
2023-03-05T20:00:45.715Z,82.82
2023-03-05T20:03:12.224Z,83.01
2023-03-05T20:05:40.913Z,82.41
2023-03-05T20:08:07.392Z,82.42
2023-03-05T20:10:34.307Z,82.41
2023-03-05T20:13:01.973Z,83.02
2023-03-05T20:15:29.269Z,83.24
2023-03-05T20:17:57.406Z,83.05
2023-03-05T20:20:24.437Z,83.71
2023-03-05T20:22:51.027Z,82.95
2023-03-05T20:25:21.132Z,82.83
2023-03-05T20:27:47.979Z,83.75
2023-03-05T20:30:15.903Z,83.52
2023-03-05T20:32:42.398Z,83.35
2023-03-05T20:35:14.355Z,83.50
2023-03-05T20:37:49.197Z,83.26
2023-03-05T20:40:16.783Z,83.64
2023-03-05T20:42:43.733Z,83.79
2023-03-05T20:45:10.596Z,83.76
2023-03-05T20:47:45.985Z,84.27
2023-03-05T20:50:14.859Z,84.31
2023-03-05T20:52:41.261Z,85.12
2023-03-05T20:55:08.628Z,84.72
2023-03-05T20:57:35.206Z,84.21
2023-03-05T21:00:03.495Z,85.12
2023-03-05T21:02:30.337Z,84.78
2023-03-05T21:04:56.880Z,84.56
2023-03-05T21:07:24.733Z,84.97
2023-03-05T21:09:51.232Z,84.95
2023-03-05T21:12:17.633Z,85.04
2023-03-05T21:14:44.037Z,85.14
2023-03-05T21:17:10.516Z,85.67
2023-03-05T21:19:38.262Z,85.74
2023-03-05T21:22:05.032Z,85.89
2023-03-05T21:24:42.843Z,86.31
2023-03-05T21:27:09.764Z,85.71
2023-03-05T21:29:36.160Z,85.97
2023-03-05T21:32:02.794Z,85.99
2023-03-05T21:34:29.285Z,85.66
2023-03-05T21:36:55.681Z,86.14
2023-03-05T21:39:22.121Z,85.73
2023-03-05T21:41:48.616Z,85.94
2023-03-05T21:44:17.604Z,86.24
2023-03-05T21:46:44.186Z,86.05
2023-03-05T21:49:10.946Z,85.22
2023-03-05T21:51:48.832Z,86.13
2023-03-05T21:54:15.480Z,86.25
2023-03-05T21:56:42.038Z,86.17
2023-03-05T21:59:08.474Z,86.54
2023-03-05T22:01:34.979Z,86.40
2023-03-05T22:04:01.431Z,85.80
2023-03-05T22:06:27.931Z,86.29
2023-03-05T22:08:54.453Z,86.58
2023-03-05T22:11:22.326Z,86.41
2023-03-05T22:13:48.777Z,86.07
2023-03-05T22:16:26.485Z,85.94
2023-03-05T22:18:53.282Z,86.28
2023-03-05T22:21:23.092Z,86.79
2023-03-05T22:23:49.919Z,86.29
2023-03-05T22:26:16.388Z,86.88
2023-03-05T22:28:42.835Z,87.44
2023-03-05T22:31:10.471Z,87.29
2023-03-05T22:33:36.970Z,87.40
2023-03-05T22:36:11.906Z,87.38
2023-03-05T22:38:38.760Z,87.57
2023-03-05T22:41:13.987Z,87.55
2023-03-05T22:43:41.036Z,87.75
2023-03-05T22:46:13.669Z,87.98
2023-03-05T22:48:40.933Z,87.78
2023-03-05T22:51:08.646Z,88.32
2023-03-05T22:53:35.512Z,87.71
2023-03-05T22:56:07.329Z,87.86
2023-03-05T22:58:34.062Z,88.79
2023-03-05T23:01:00.580Z,88.21
2023-03-05T23:03:27.353Z,88.89
2023-03-05T23:05:53.861Z,88.76
2023-03-05T23:08:20.547Z,88.37
2023-03-05T23:10:47.066Z,88.70
2023-03-05T23:13:13.838Z,88.76
2023-03-05T23:15:40.497Z,89.83
2023-03-05T23:18:07.844Z,89.29
2023-03-05T23:20:36.801Z,89.24
2023-03-05T23:23:04.413Z,89.70
2023-03-05T23:25:33.019Z,90.15
2023-03-05T23:28:00.631Z,90.35
2023-03-05T23:30:31.698Z,90.30
2023-03-05T23:33:13.366Z,90.88
2023-03-05T23:35:43.108Z,90.93
2023-03-05T23:38:13.354Z,91.00
2023-03-05T23:40:45.967Z,91.56
2023-03-05T23:43:13.918Z,90.80
2023-03-05T23:45:42.139Z,91.35
2023-03-05T23:48:08.987Z,91.36
2023-03-05T23:50:39.919Z,90.59
2023-03-05T23:53:06.730Z,91.16
2023-03-05T23:55:44.066Z,91.75
2023-03-05T23:58:11.846Z,91.18
